sensor_id;sensor_type;location;lat;lon;timestamp;temperature;humidity
71088;SHT31;58747;50.674;4.616;2022-10-31T00:00:49;14.28;88.65
71088;SHT31;58747;50.674;4.616;2022-10-31T00:03:15;14.28;88.63
71088;SHT31;58747;50.674;4.616;2022-10-31T00:05:46;14.25;88.55
71088;SHT31;58747;50.674;4.616;2022-10-31T00:08:11;14.31;88.47
71088;SHT31;58747;50.674;4.616;2022-10-31T00:10:38;14.31;88.24
71088;SHT31;58747;50.674;4.616;2022-10-31T00:13:04;14.31;88.19
71088;SHT31;58747;50.674;4.616;2022-10-31T00:15:29;14.32;88.15
71088;SHT31;58747;50.674;4.616;2022-10-31T00:17:54;14.32;88.22
71088;SHT31;58747;50.674;4.616;2022-10-31T00:20:20;14.29;88.37
71088;SHT31;58747;50.674;4.616;2022-10-31T00:22:45;14.32;88.23
71088;SHT31;58747;50.674;4.616;2022-10-31T00:25:10;14.31;88.30
71088;SHT31;58747;50.674;4.616;2022-10-31T00:27:36;14.31;88.25
71088;SHT31;58747;50.674;4.616;2022-10-31T00:30:02;14.33;87.93
71088;SHT31;58747;50.674;4.616;2022-10-31T00:32:28;14.31;87.99
71088;SHT31;58747;50.674;4.616;2022-10-31T00:34:55;14.29;88.03
71088;SHT31;58747;50.674;4.616;2022-10-31T00:37:20;14.32;88.03
71088;SHT31;58747;50.674;4.616;2022-10-31T00:39:45;14.32;88.04
71088;SHT31;58747;50.674;4.616;2022-10-31T00:42:14;14.32;88.09
71088;SHT31;58747;50.674;4.616;2022-10-31T00:44:39;14.33;87.85
71088;SHT31;58747;50.674;4.616;2022-10-31T00:47:04;14.31;87.98
71088;SHT31;58747;50.674;4.616;2022-10-31T00:49:29;14.32;87.92
71088;SHT31;58747;50.674;4.616;2022-10-31T00:51:55;14.32;87.93
71088;SHT31;58747;50.674;4.616;2022-10-31T00:54:20;14.29;88.04
71088;SHT31;58747;50.674;4.616;2022-10-31T00:56:45;14.26;88.01
71088;SHT31;58747;50.674;4.616;2022-10-31T00:59:11;14.26;88.04
71088;SHT31;58747;50.674;4.616;2022-10-31T01:01:36;14.22;88.20
71088;SHT31;58747;50.674;4.616;2022-10-31T01:04:01;14.20;88.24
71088;SHT31;58747;50.674;4.616;2022-10-31T01:06:27;14.17;88.25
71088;SHT31;58747;50.674;4.616;2022-10-31T01:08:52;14.14;88.47
71088;SHT31;58747;50.674;4.616;2022-10-31T01:11:19;14.12;88.42
71088;SHT31;58747;50.674;4.616;2022-10-31T01:13:45;14.10;88.60
71088;SHT31;58747;50.674;4.616;2022-10-31T01:16:16;14.07;88.72
71088;SHT31;58747;50.674;4.616;2022-10-31T01:18:42;14.08;88.70
71088;SHT31;58747;50.674;4.616;2022-10-31T01:21:10;14.07;88.62
71088;SHT31;58747;50.674;4.616;2022-10-31T01:23:36;14.00;88.76
71088;SHT31;58747;50.674;4.616;2022-10-31T01:26:06;14.00;88.78
71088;SHT31;58747;50.674;4.616;2022-10-31T01:28:33;13.92;88.78
71088;SHT31;58747;50.674;4.616;2022-10-31T01:31:07;13.91;88.78
71088;SHT31;58747;50.674;4.616;2022-10-31T01:33:33;13.85;88.83
71088;SHT31;58747;50.674;4.616;2022-10-31T01:35:59;13.81;88.90
71088;SHT31;58747;50.674;4.616;2022-10-31T01:38:24;13.78;89.00
71088;SHT31;58747;50.674;4.616;2022-10-31T01:40:51;13.73;89.07
71088;SHT31;58747;50.674;4.616;2022-10-31T01:43:16;13.67;89.16
71088;SHT31;58747;50.674;4.616;2022-10-31T01:45:46;13.62;89.39
71088;SHT31;58747;50.674;4.616;2022-10-31T01:48:15;13.59;89.46
71088;SHT31;58747;50.674;4.616;2022-10-31T01:50:42;13.56;89.46
71088;SHT31;58747;50.674;4.616;2022-10-31T01:53:09;13.56;89.45
71088;SHT31;58747;50.674;4.616;2022-10-31T01:55:38;13.47;89.46
71088;SHT31;58747;50.674;4.616;2022-10-31T01:58:08;13.40;89.48
71088;SHT31;58747;50.674;4.616;2022-10-31T02:00:34;13.40;89.74
71088;SHT31;58747;50.674;4.616;2022-10-31T02:03:00;13.32;89.73
71088;SHT31;58747;50.674;4.616;2022-10-31T02:05:28;13.33;89.83
71088;SHT31;58747;50.674;4.616;2022-10-31T02:08:17;13.29;90.48
71088;SHT31;58747;50.674;4.616;2022-10-31T02:10:44;13.26;90.57
71088;SHT31;58747;50.674;4.616;2022-10-31T02:13:09;13.27;90.15
71088;SHT31;58747;50.674;4.616;2022-10-31T02:15:37;13.23;90.08
71088;SHT31;58747;50.674;4.616;2022-10-31T02:18:04;13.16;90.19
71088;SHT31;58747;50.674;4.616;2022-10-31T02:20:35;13.13;90.16
71088;SHT31;58747;50.674;4.616;2022-10-31T02:23:28;13.15;89.99
71088;SHT31;58747;50.674;4.616;2022-10-31T02:26:29;13.12;89.97
71088;SHT31;58747;50.674;4.616;2022-10-31T02:32:30;13.05;90.19
71088;SHT31;58747;50.674;4.616;2022-10-31T02:38:08;13.02;90.19
71088;SHT31;58747;50.674;4.616;2022-10-31T02:45:55;12.94;90.59
71088;SHT31;58747;50.674;4.616;2022-10-31T02:48:29;12.91;90.78
71088;SHT31;58747;50.674;4.616;2022-10-31T02:50:58;12.94;90.65
71088;SHT31;58747;50.674;4.616;2022-10-31T02:53:25;12.91;90.73
71088;SHT31;58747;50.674;4.616;2022-10-31T02:56:06;12.94;90.47
71088;SHT31;58747;50.674;4.616;2022-10-31T02:58:37;12.95;90.52
71088;SHT31;58747;50.674;4.616;2022-10-31T03:10:10;12.87;91.29
71088;SHT31;58747;50.674;4.616;2022-10-31T03:13:02;12.88;91.25
71088;SHT31;58747;50.674;4.616;2022-10-31T03:15:33;12.88;91.27
71088;SHT31;58747;50.674;4.616;2022-10-31T03:18:36;12.89;91.31
71088;SHT31;58747;50.674;4.616;2022-10-31T03:21:06;12.89;91.44
71088;SHT31;58747;50.674;4.616;2022-10-31T03:23:35;12.89;91.13
71088;SHT31;58747;50.674;4.616;2022-10-31T03:26:05;12.88;90.93
71088;SHT31;58747;50.674;4.616;2022-10-31T03:28:37;12.85;90.84
71088;SHT31;58747;50.674;4.616;2022-10-31T03:31:04;12.81;90.87
71088;SHT31;58747;50.674;4.616;2022-10-31T03:33:34;12.73;91.23
71088;SHT31;58747;50.674;4.616;2022-10-31T03:36:03;12.71;91.41
71088;SHT31;58747;50.674;4.616;2022-10-31T03:38:29;12.67;91.69
71088;SHT31;58747;50.674;4.616;2022-10-31T03:40:58;12.65;91.53
71088;SHT31;58747;50.674;4.616;2022-10-31T03:43:27;12.61;91.65
71088;SHT31;58747;50.674;4.616;2022-10-31T03:45:54;12.58;91.36
71088;SHT31;58747;50.674;4.616;2022-10-31T03:48:20;12.58;91.14
71088;SHT31;58747;50.674;4.616;2022-10-31T03:53:50;12.54;91.83
71088;SHT31;58747;50.674;4.616;2022-10-31T03:56:24;12.51;91.85
71088;SHT31;58747;50.674;4.616;2022-10-31T03:59:19;12.43;92.07
71088;SHT31;58747;50.674;4.616;2022-10-31T04:01:49;12.37;92.06
71088;SHT31;58747;50.674;4.616;2022-10-31T04:04:16;12.29;92.26
71088;SHT31;58747;50.674;4.616;2022-10-31T04:06:42;12.26;92.32
71088;SHT31;58747;50.674;4.616;2022-10-31T04:09:09;12.23;92.13
71088;SHT31;58747;50.674;4.616;2022-10-31T04:11:43;12.23;92.50
71088;SHT31;58747;50.674;4.616;2022-10-31T04:14:11;12.17;92.49
71088;SHT31;58747;50.674;4.616;2022-10-31T04:16:41;12.12;92.55
71088;SHT31;58747;50.674;4.616;2022-10-31T04:19:07;12.06;92.47
71088;SHT31;58747;50.674;4.616;2022-10-31T04:21:33;12.05;92.53
71088;SHT31;58747;50.674;4.616;2022-10-31T04:23:58;12.03;92.55
71088;SHT31;58747;50.674;4.616;2022-10-31T04:26:23;12.05;92.52
71088;SHT31;58747;50.674;4.616;2022-10-31T04:28:49;12.02;92.51
71088;SHT31;58747;50.674;4.616;2022-10-31T04:31:14;12.00;92.57
71088;SHT31;58747;50.674;4.616;2022-10-31T04:33:40;11.98;92.78
71088;SHT31;58747;50.674;4.616;2022-10-31T04:36:05;12.02;92.67
71088;SHT31;58747;50.674;4.616;2022-10-31T04:38:31;12.05;92.88
71088;SHT31;58747;50.674;4.616;2022-10-31T04:40:56;12.05;92.97
71088;SHT31;58747;50.674;4.616;2022-10-31T04:43:22;12.03;93.04
71088;SHT31;58747;50.674;4.616;2022-10-31T04:45:47;12.02;93.50
71088;SHT31;58747;50.674;4.616;2022-10-31T04:48:13;12.06;93.20
71088;SHT31;58747;50.674;4.616;2022-10-31T04:50:38;12.07;93.47
71088;SHT31;58747;50.674;4.616;2022-10-31T04:53:04;12.10;93.35
71088;SHT31;58747;50.674;4.616;2022-10-31T04:55:29;12.12;93.53
71088;SHT31;58747;50.674;4.616;2022-10-31T04:57:55;12.10;93.56
71088;SHT31;58747;50.674;4.616;2022-10-31T05:00:21;12.13;93.40
71088;SHT31;58747;50.674;4.616;2022-10-31T05:02:52;12.16;93.48
71088;SHT31;58747;50.674;4.616;2022-10-31T05:05:19;12.17;93.35
71088;SHT31;58747;50.674;4.616;2022-10-31T05:07:46;12.17;93.42
71088;SHT31;58747;50.674;4.616;2022-10-31T05:10:14;12.25;93.16
71088;SHT31;58747;50.674;4.616;2022-10-31T05:12:51;12.26;92.92
71088;SHT31;58747;50.674;4.616;2022-10-31T05:15:18;12.25;92.66
71088;SHT31;58747;50.674;4.616;2022-10-31T05:17:44;12.29;92.46
71088;SHT31;58747;50.674;4.616;2022-10-31T05:20:11;12.30;92.39
71088;SHT31;58747;50.674;4.616;2022-10-31T05:22:41;12.26;92.73
71088;SHT31;58747;50.674;4.616;2022-10-31T05:25:07;12.25;92.93
71088;SHT31;58747;50.674;4.616;2022-10-31T05:27:33;12.25;92.58
71088;SHT31;58747;50.674;4.616;2022-10-31T05:29:58;12.23;92.93
71088;SHT31;58747;50.674;4.616;2022-10-31T05:32:23;12.20;92.89
71088;SHT31;58747;50.674;4.616;2022-10-31T05:34:49;12.15;93.19
71088;SHT31;58747;50.674;4.616;2022-10-31T05:37:14;12.15;93.39
71088;SHT31;58747;50.674;4.616;2022-10-31T05:39:39;12.13;93.25
71088;SHT31;58747;50.674;4.616;2022-10-31T05:42:05;12.12;93.15
71088;SHT31;58747;50.674;4.616;2022-10-31T05:44:30;12.06;93.26
71088;SHT31;58747;50.674;4.616;2022-10-31T05:46:55;12.05;93.13
71088;SHT31;58747;50.674;4.616;2022-10-31T05:49:20;12.06;93.28
71088;SHT31;58747;50.674;4.616;2022-10-31T05:51:46;12.05;93.28
71088;SHT31;58747;50.674;4.616;2022-10-31T05:54:11;12.06;93.24
71088;SHT31;58747;50.674;4.616;2022-10-31T05:56:36;12.03;93.49
71088;SHT31;58747;50.674;4.616;2022-10-31T05:59:02;12.03;93.50
71088;SHT31;58747;50.674;4.616;2022-10-31T06:01:27;12.03;93.39
71088;SHT31;58747;50.674;4.616;2022-10-31T06:03:52;12.05;93.41
71088;SHT31;58747;50.674;4.616;2022-10-31T06:06:18;12.05;93.21
71088;SHT31;58747;50.674;4.616;2022-10-31T06:08:43;12.06;93.36
71088;SHT31;58747;50.674;4.616;2022-10-31T06:11:08;12.13;93.62
71088;SHT31;58747;50.674;4.616;2022-10-31T06:13:33;12.20;93.48
71088;SHT31;58747;50.674;4.616;2022-10-31T06:15:59;12.26;93.31
71088;SHT31;58747;50.674;4.616;2022-10-31T06:18:24;12.34;92.97
71088;SHT31;58747;50.674;4.616;2022-10-31T06:20:50;12.41;92.69
71088;SHT31;58747;50.674;4.616;2022-10-31T06:23:15;12.46;92.75
71088;SHT31;58747;50.674;4.616;2022-10-31T06:25:41;12.47;92.63
71088;SHT31;58747;50.674;4.616;2022-10-31T06:28:06;12.50;92.60
71088;SHT31;58747;50.674;4.616;2022-10-31T06:30:31;12.50;92.64
71088;SHT31;58747;50.674;4.616;2022-10-31T06:33:04;12.51;92.52
71088;SHT31;58747;50.674;4.616;2022-10-31T06:35:30;12.53;92.49
71088;SHT31;58747;50.674;4.616;2022-10-31T06:37:55;12.55;92.57
71088;SHT31;58747;50.674;4.616;2022-10-31T06:40:21;12.58;92.47
71088;SHT31;58747;50.674;4.616;2022-10-31T06:42:46;12.63;92.54
71088;SHT31;58747;50.674;4.616;2022-10-31T06:45:12;12.61;92.68
71088;SHT31;58747;50.674;4.616;2022-10-31T06:47:37;12.63;92.80
71088;SHT31;58747;50.674;4.616;2022-10-31T06:50:03;12.65;92.74
71088;SHT31;58747;50.674;4.616;2022-10-31T06:52:28;12.68;92.81
71088;SHT31;58747;50.674;4.616;2022-10-31T06:54:54;12.63;93.26
71088;SHT31;58747;50.674;4.616;2022-10-31T06:57:19;12.63;93.92
71088;SHT31;58747;50.674;4.616;2022-10-31T06:59:44;12.67;93.91
71088;SHT31;58747;50.674;4.616;2022-10-31T07:02:10;12.60;94.39
71088;SHT31;58747;50.674;4.616;2022-10-31T07:04:35;12.60;94.88
71088;SHT31;58747;50.674;4.616;2022-10-31T07:07:01;12.55;94.99
71088;SHT31;58747;50.674;4.616;2022-10-31T07:09:26;12.61;94.76
71088;SHT31;58747;50.674;4.616;2022-10-31T07:11:52;12.60;94.79
71088;SHT31;58747;50.674;4.616;2022-10-31T07:14:18;12.61;94.80
71088;SHT31;58747;50.674;4.616;2022-10-31T07:16:43;12.64;94.74
71088;SHT31;58747;50.674;4.616;2022-10-31T07:19:08;12.61;94.83
71088;SHT31;58747;50.674;4.616;2022-10-31T07:21:34;12.63;95.06
71088;SHT31;58747;50.674;4.616;2022-10-31T07:23:59;12.65;95.19
71088;SHT31;58747;50.674;4.616;2022-10-31T07:26:24;12.68;95.38
71088;SHT31;58747;50.674;4.616;2022-10-31T07:28:51;12.68;95.08
71088;SHT31;58747;50.674;4.616;2022-10-31T07:31:16;12.68;95.26
71088;SHT31;58747;50.674;4.616;2022-10-31T07:33:41;12.71;95.92
71088;SHT31;58747;50.674;4.616;2022-10-31T07:36:07;12.69;95.98
71088;SHT31;58747;50.674;4.616;2022-10-31T07:38:32;12.74;95.79
71088;SHT31;58747;50.674;4.616;2022-10-31T07:40:58;12.80;95.79
71088;SHT31;58747;50.674;4.616;2022-10-31T07:43:23;12.85;95.82
71088;SHT31;58747;50.674;4.616;2022-10-31T07:45:50;12.88;95.74
71088;SHT31;58747;50.674;4.616;2022-10-31T07:48:16;12.92;96.02
71088;SHT31;58747;50.674;4.616;2022-10-31T07:50:41;12.94;96.06
71088;SHT31;58747;50.674;4.616;2022-10-31T07:53:09;12.98;96.19
71088;SHT31;58747;50.674;4.616;2022-10-31T07:55:35;13.02;96.19
71088;SHT31;58747;50.674;4.616;2022-10-31T07:58:06;13.05;96.05
71088;SHT31;58747;50.674;4.616;2022-10-31T08:00:34;13.08;94.65
71088;SHT31;58747;50.674;4.616;2022-10-31T08:03:02;13.12;94.63
71088;SHT31;58747;50.674;4.616;2022-10-31T08:05:28;13.16;94.92
71088;SHT31;58747;50.674;4.616;2022-10-31T08:07:54;13.20;94.96
71088;SHT31;58747;50.674;4.616;2022-10-31T08:10:20;13.25;94.40
71088;SHT31;58747;50.674;4.616;2022-10-31T08:12:46;13.33;93.51
71088;SHT31;58747;50.674;4.616;2022-10-31T08:15:13;13.29;93.89
71088;SHT31;58747;50.674;4.616;2022-10-31T08:17:41;13.30;94.88
71088;SHT31;58747;50.674;4.616;2022-10-31T08:20:07;13.30;94.90
71088;SHT31;58747;50.674;4.616;2022-10-31T08:22:33;13.33;94.81
71088;SHT31;58747;50.674;4.616;2022-10-31T08:24:58;13.39;94.72
71088;SHT31;58747;50.674;4.616;2022-10-31T08:27:23;13.38;94.08
71088;SHT31;58747;50.674;4.616;2022-10-31T08:29:49;13.59;94.94
71088;SHT31;58747;50.674;4.616;2022-10-31T08:32:14;13.62;94.13
71088;SHT31;58747;50.674;4.616;2022-10-31T08:34:39;13.62;93.86
71088;SHT31;58747;50.674;4.616;2022-10-31T08:37:05;13.63;93.10
71088;SHT31;58747;50.674;4.616;2022-10-31T08:39:30;13.64;93.15
71088;SHT31;58747;50.674;4.616;2022-10-31T08:41:55;13.66;92.70
71088;SHT31;58747;50.674;4.616;2022-10-31T08:44:21;13.70;92.78
71088;SHT31;58747;50.674;4.616;2022-10-31T08:46:46;13.81;91.98
71088;SHT31;58747;50.674;4.616;2022-10-31T08:49:11;13.84;91.32
71088;SHT31;58747;50.674;4.616;2022-10-31T08:51:37;13.95;91.48
71088;SHT31;58747;50.674;4.616;2022-10-31T08:54:02;13.97;91.48
71088;SHT31;58747;50.674;4.616;2022-10-31T08:56:27;14.00;91.37
71088;SHT31;58747;50.674;4.616;2022-10-31T08:58:53;14.12;91.03
71088;SHT31;58747;50.674;4.616;2022-10-31T09:01:18;14.22;90.90
71088;SHT31;58747;50.674;4.616;2022-10-31T09:03:44;14.43;90.53
71088;SHT31;58747;50.674;4.616;2022-10-31T09:06:09;14.45;89.97
71088;SHT31;58747;50.674;4.616;2022-10-31T09:08:35;14.49;89.73
71088;SHT31;58747;50.674;4.616;2022-10-31T09:11:01;14.56;89.17
71088;SHT31;58747;50.674;4.616;2022-10-31T09:16:21;14.63;88.08
71088;SHT31;58747;50.674;4.616;2022-10-31T09:18:47;14.69;88.42
71088;SHT31;58747;50.674;4.616;2022-10-31T09:21:12;14.75;88.95
71088;SHT31;58747;50.674;4.616;2022-10-31T09:23:37;14.75;88.72
71088;SHT31;58747;50.674;4.616;2022-10-31T09:26:03;14.73;88.74
71088;SHT31;58747;50.674;4.616;2022-10-31T09:28:28;14.91;88.27
71088;SHT31;58747;50.674;4.616;2022-10-31T09:30:54;14.91;88.23
71088;SHT31;58747;50.674;4.616;2022-10-31T09:33:20;15.03;88.67
71088;SHT31;58747;50.674;4.616;2022-10-31T09:35:45;15.20;89.13
71088;SHT31;58747;50.674;4.616;2022-10-31T09:38:13;15.31;88.43
71088;SHT31;58747;50.674;4.616;2022-10-31T09:40:51;15.37;87.53
71088;SHT31;58747;50.674;4.616;2022-10-31T09:45:56;15.51;86.63
71088;SHT31;58747;50.674;4.616;2022-10-31T09:56:27;15.57;86.65
71088;SHT31;58747;50.674;4.616;2022-10-31T09:58:55;15.57;86.19
71088;SHT31;58747;50.674;4.616;2022-10-31T10:04:33;15.49;86.33
71088;SHT31;58747;50.674;4.616;2022-10-31T10:07:07;15.57;86.10
71088;SHT31;58747;50.674;4.616;2022-10-31T10:09:33;15.65;86.08
71088;SHT31;58747;50.674;4.616;2022-10-31T10:12:15;15.72;85.49
71088;SHT31;58747;50.674;4.616;2022-10-31T10:20:18;15.95;84.85
71088;SHT31;58747;50.674;4.616;2022-10-31T10:23:15;16.06;85.19
71088;SHT31;58747;50.674;4.616;2022-10-31T10:25:46;16.20;84.26
71088;SHT31;58747;50.674;4.616;2022-10-31T10:28:28;16.27;83.88
71088;SHT31;58747;50.674;4.616;2022-10-31T10:31:01;16.50;83.63
71088;SHT31;58747;50.674;4.616;2022-10-31T10:34:01;16.65;81.77
71088;SHT31;58747;50.674;4.616;2022-10-31T10:36:49;16.94;81.33
71088;SHT31;58747;50.674;4.616;2022-10-31T10:39:25;17.18;81.10
71088;SHT31;58747;50.674;4.616;2022-10-31T10:41:55;17.20;80.43
71088;SHT31;58747;50.674;4.616;2022-10-31T10:44:42;17.33;80.14
71088;SHT31;58747;50.674;4.616;2022-10-31T10:47:52;17.49;80.40
71088;SHT31;58747;50.674;4.616;2022-10-31T10:50:26;17.59;79.54
71088;SHT31;58747;50.674;4.616;2022-10-31T10:56:13;17.66;78.39
71088;SHT31;58747;50.674;4.616;2022-10-31T10:58:41;18.02;77.69
71088;SHT31;58747;50.674;4.616;2022-10-31T11:01:15;18.11;77.06
71088;SHT31;58747;50.674;4.616;2022-10-31T11:03:40;18.18;77.22
71088;SHT31;58747;50.674;4.616;2022-10-31T11:06:17;18.63;75.57
71088;SHT31;58747;50.674;4.616;2022-10-31T11:08:42;18.86;73.95
71088;SHT31;58747;50.674;4.616;2022-10-31T11:11:18;19.63;72.48
71088;SHT31;58747;50.674;4.616;2022-10-31T11:13:47;20.43;69.12
71088;SHT31;58747;50.674;4.616;2022-10-31T11:16:15;21.07;68.55
71088;SHT31;58747;50.674;4.616;2022-10-31T11:18:52;21.04;66.85
71088;SHT31;58747;50.674;4.616;2022-10-31T11:21:21;20.96;65.65
71088;SHT31;58747;50.674;4.616;2022-10-31T11:23:48;20.89;66.32
71088;SHT31;58747;50.674;4.616;2022-10-31T11:26:20;21.09;65.69
71088;SHT31;58747;50.674;4.616;2022-10-31T11:28:56;21.70;65.48
71088;SHT31;58747;50.674;4.616;2022-10-31T11:31:23;21.80;63.42
71088;SHT31;58747;50.674;4.616;2022-10-31T11:33:51;21.30;65.13
71088;SHT31;58747;50.674;4.616;2022-10-31T11:36:30;21.16;66.74
71088;SHT31;58747;50.674;4.616;2022-10-31T11:38:59;22.04;62.81
71088;SHT31;58747;50.674;4.616;2022-10-31T11:43:53;23.35;60.60
71088;SHT31;58747;50.674;4.616;2022-10-31T11:48:53;21.29;64.80
71088;SHT31;58747;50.674;4.616;2022-10-31T11:51:24;20.43;68.63
71088;SHT31;58747;50.674;4.616;2022-10-31T11:53:58;19.82;71.51
71088;SHT31;58747;50.674;4.616;2022-10-31T11:56:24;19.44;74.14
71088;SHT31;58747;50.674;4.616;2022-10-31T11:59:29;19.08;74.53
71088;SHT31;58747;50.674;4.616;2022-10-31T12:01:56;18.84;75.66
71088;SHT31;58747;50.674;4.616;2022-10-31T12:04:38;18.83;75.35
71088;SHT31;58747;50.674;4.616;2022-10-31T12:07:05;18.67;75.38
71088;SHT31;58747;50.674;4.616;2022-10-31T12:09:34;18.71;76.26
71088;SHT31;58747;50.674;4.616;2022-10-31T12:14:42;18.53;75.73
71088;SHT31;58747;50.674;4.616;2022-10-31T12:17:36;18.55;77.45
71088;SHT31;58747;50.674;4.616;2022-10-31T12:20:29;18.55;77.17
71088;SHT31;58747;50.674;4.616;2022-10-31T12:23:19;18.56;77.51
71088;SHT31;58747;50.674;4.616;2022-10-31T12:26:08;18.48;76.30
71088;SHT31;58747;50.674;4.616;2022-10-31T12:28:55;18.52;76.53
71088;SHT31;58747;50.674;4.616;2022-10-31T12:31:38;18.55;76.66
71088;SHT31;58747;50.674;4.616;2022-10-31T12:34:30;18.63;76.65
71088;SHT31;58747;50.674;4.616;2022-10-31T12:43:01;18.74;75.84
71088;SHT31;58747;50.674;4.616;2022-10-31T12:48:35;18.86;74.17
71088;SHT31;58747;50.674;4.616;2022-10-31T12:51:14;18.80;74.34
71088;SHT31;58747;50.674;4.616;2022-10-31T12:53:56;18.88;72.71
71088;SHT31;58747;50.674;4.616;2022-10-31T12:56:56;18.86;73.40
71088;SHT31;58747;50.674;4.616;2022-10-31T13:00:10;18.93;71.65
71088;SHT31;58747;50.674;4.616;2022-10-31T13:02:41;18.93;72.88
71088;SHT31;58747;50.674;4.616;2022-10-31T13:08:00;19.01;72.94
71088;SHT31;58747;50.674;4.616;2022-10-31T13:10:34;18.97;72.71
71088;SHT31;58747;50.674;4.616;2022-10-31T13:15:50;18.96;71.64
71088;SHT31;58747;50.674;4.616;2022-10-31T13:18:38;19.00;70.59
71088;SHT31;58747;50.674;4.616;2022-10-31T13:21:09;18.87;71.44
71088;SHT31;58747;50.674;4.616;2022-10-31T13:23:38;18.94;71.82
71088;SHT31;58747;50.674;4.616;2022-10-31T13:26:18;18.87;71.95
71088;SHT31;58747;50.674;4.616;2022-10-31T13:28:54;18.81;71.45
71088;SHT31;58747;50.674;4.616;2022-10-31T13:31:21;18.84;72.62
71088;SHT31;58747;50.674;4.616;2022-10-31T13:33:48;18.80;73.93
71088;SHT31;58747;50.674;4.616;2022-10-31T13:41:52;18.73;73.48
71088;SHT31;58747;50.674;4.616;2022-10-31T13:44:29;18.80;72.41
71088;SHT31;58747;50.674;4.616;2022-10-31T13:46:58;18.73;72.13
71088;SHT31;58747;50.674;4.616;2022-10-31T13:57:06;18.71;72.63
71088;SHT31;58747;50.674;4.616;2022-10-31T13:59:36;18.64;73.78
71088;SHT31;58747;50.674;4.616;2022-10-31T14:02:14;18.60;74.02
71088;SHT31;58747;50.674;4.616;2022-10-31T14:04:59;18.70;73.49
71088;SHT31;58747;50.674;4.616;2022-10-31T14:07:26;18.76;73.28
71088;SHT31;58747;50.674;4.616;2022-10-31T14:09:56;18.71;74.15
71088;SHT31;58747;50.674;4.616;2022-10-31T14:12:26;18.69;74.25
71088;SHT31;58747;50.674;4.616;2022-10-31T14:14:59;18.63;74.47
71088;SHT31;58747;50.674;4.616;2022-10-31T14:17:27;18.61;74.34
71088;SHT31;58747;50.674;4.616;2022-10-31T14:22:37;18.66;73.80
71088;SHT31;58747;50.674;4.616;2022-10-31T14:25:33;18.61;74.04
71088;SHT31;58747;50.674;4.616;2022-10-31T14:28:02;18.56;75.73
71088;SHT31;58747;50.674;4.616;2022-10-31T14:30:29;18.63;74.14
71088;SHT31;58747;50.674;4.616;2022-10-31T14:33:01;18.61;74.59
71088;SHT31;58747;50.674;4.616;2022-10-31T14:35:37;18.56;74.28
71088;SHT31;58747;50.674;4.616;2022-10-31T14:38:29;18.67;73.17
71088;SHT31;58747;50.674;4.616;2022-10-31T14:49:16;18.67;72.90
71088;SHT31;58747;50.674;4.616;2022-10-31T14:51:47;18.69;72.91
71088;SHT31;58747;50.674;4.616;2022-10-31T14:54:17;18.77;72.51
71088;SHT31;58747;50.674;4.616;2022-10-31T14:56:49;18.76;72.58
71088;SHT31;58747;50.674;4.616;2022-10-31T14:59:18;18.80;71.96
71088;SHT31;58747;50.674;4.616;2022-10-31T15:01:59;18.77;72.05
71088;SHT31;58747;50.674;4.616;2022-10-31T15:04:28;18.73;73.27
71088;SHT31;58747;50.674;4.616;2022-10-31T15:07:04;18.67;73.14
71088;SHT31;58747;50.674;4.616;2022-10-31T15:09:32;18.60;73.21
71088;SHT31;58747;50.674;4.616;2022-10-31T15:11:59;18.48;74.16
71088;SHT31;58747;50.674;4.616;2022-10-31T15:14:30;18.48;73.64
71088;SHT31;58747;50.674;4.616;2022-10-31T15:17:02;18.49;73.93
71088;SHT31;58747;50.674;4.616;2022-10-31T15:19:30;18.46;73.46
71088;SHT31;58747;50.674;4.616;2022-10-31T15:21:58;18.55;73.17
71088;SHT31;58747;50.674;4.616;2022-10-31T15:24:28;18.45;73.50
71088;SHT31;58747;50.674;4.616;2022-10-31T15:26:55;18.39;73.87
71088;SHT31;58747;50.674;4.616;2022-10-31T15:29:23;18.22;73.76
71088;SHT31;58747;50.674;4.616;2022-10-31T15:31:50;18.15;73.73
71088;SHT31;58747;50.674;4.616;2022-10-31T15:34:21;18.06;74.32
71088;SHT31;58747;50.674;4.616;2022-10-31T15:36:48;18.05;72.98
71088;SHT31;58747;50.674;4.616;2022-10-31T15:39:15;17.94;72.91
71088;SHT31;58747;50.674;4.616;2022-10-31T15:41:52;17.88;72.85
71088;SHT31;58747;50.674;4.616;2022-10-31T15:47:02;17.80;72.87
71088;SHT31;58747;50.674;4.616;2022-10-31T15:55:00;17.59;72.31
71088;SHT31;58747;50.674;4.616;2022-10-31T15:57:26;17.44;73.62
71088;SHT31;58747;50.674;4.616;2022-10-31T15:59:52;17.36;73.61
71088;SHT31;58747;50.674;4.616;2022-10-31T16:02:23;17.27;74.23
71088;SHT31;58747;50.674;4.616;2022-10-31T16:05:00;17.24;73.88
71088;SHT31;58747;50.674;4.616;2022-10-31T16:07:27;17.20;74.27
71088;SHT31;58747;50.674;4.616;2022-10-31T16:09:55;17.15;74.70
71088;SHT31;58747;50.674;4.616;2022-10-31T16:12:22;17.06;74.76
71088;SHT31;58747;50.674;4.616;2022-10-31T16:14:49;17.12;73.94
71088;SHT31;58747;50.674;4.616;2022-10-31T16:17:18;17.15;74.08
71088;SHT31;58747;50.674;4.616;2022-10-31T16:19:54;17.02;75.17
71088;SHT31;58747;50.674;4.616;2022-10-31T16:22:26;16.94;75.26
71088;SHT31;58747;50.674;4.616;2022-10-31T16:25:04;16.91;74.29
71088;SHT31;58747;50.674;4.616;2022-10-31T16:27:34;16.88;74.73
71088;SHT31;58747;50.674;4.616;2022-10-31T16:30:02;16.94;75.44
71088;SHT31;58747;50.674;4.616;2022-10-31T16:32:35;17.01;74.53
71088;SHT31;58747;50.674;4.616;2022-10-31T16:35:25;16.99;73.74
71088;SHT31;58747;50.674;4.616;2022-10-31T16:37:51;16.92;73.81
71088;SHT31;58747;50.674;4.616;2022-10-31T16:40:17;16.91;74.25
71088;SHT31;58747;50.674;4.616;2022-10-31T16:42:43;16.82;74.47
71088;SHT31;58747;50.674;4.616;2022-10-31T16:45:16;16.89;74.33
71088;SHT31;58747;50.674;4.616;2022-10-31T16:47:41;16.75;74.77
71088;SHT31;58747;50.674;4.616;2022-10-31T16:50:17;16.71;74.55
71088;SHT31;58747;50.674;4.616;2022-10-31T16:52:43;16.64;74.64
71088;SHT31;58747;50.674;4.616;2022-10-31T16:55:12;16.58;74.82
71088;SHT31;58747;50.674;4.616;2022-10-31T16:57:38;16.51;75.20
71088;SHT31;58747;50.674;4.616;2022-10-31T17:00:07;16.40;76.51
71088;SHT31;58747;50.674;4.616;2022-10-31T17:02:32;16.30;76.29
71088;SHT31;58747;50.674;4.616;2022-10-31T17:04:58;16.36;76.85
71088;SHT31;58747;50.674;4.616;2022-10-31T17:07:23;16.41;75.69
71088;SHT31;58747;50.674;4.616;2022-10-31T17:09:48;16.38;75.83
71088;SHT31;58747;50.674;4.616;2022-10-31T17:12:18;16.28;76.34
71088;SHT31;58747;50.674;4.616;2022-10-31T17:14:46;16.17;76.65
71088;SHT31;58747;50.674;4.616;2022-10-31T17:17:13;16.07;77.23
71088;SHT31;58747;50.674;4.616;2022-10-31T17:19:38;16.10;76.78
71088;SHT31;58747;50.674;4.616;2022-10-31T17:22:03;16.10;77.28
71088;SHT31;58747;50.674;4.616;2022-10-31T17:24:29;16.02;76.84
71088;SHT31;58747;50.674;4.616;2022-10-31T17:26:54;16.00;76.83
71088;SHT31;58747;50.674;4.616;2022-10-31T17:29:19;15.93;77.01